Terminal Aerodrome Forecast
Issued by NWS

Home | Current Version | Previous Version | Text Only | Print | Product List | Glossary Off
Versions: 1 2 3 4 5 6 7 8 9 10 11 12 13 14 15 16 17

000
FTUS45 KGGW 032300
TAFSDY
TAF
KSDY 032333Z 0400/0424 VRB04KT 6SM HZ SCT070
     FM040300 VRB06KT 3SM HZ SCT200
     FM041400 VRB06KT 6SM HZ SCT250
      AMD LTD TO CLD VIS AND WIND=

USA.gov is the U.S. government's official web portal to all federal, state and local government web resources and services.